sensor_id;sensor_type;location;lat;lon;timestamp;P1;durP1;ratioP1;P2;durP2;ratioP2
74543;SDS011;63016;55.030;38.710;2022-10-31T00:01:12;1.52;;;0.30;;
74543;SDS011;63016;55.030;38.710;2022-10-31T00:03:39;0.55;;;0.30;;
74543;SDS011;63016;55.030;38.710;2022-10-31T00:06:04;0.30;;;0.10;;
74543;SDS011;63016;55.030;38.710;2022-10-31T00:08:30;1.10;;;0.20;;
74543;SDS011;63016;55.030;38.710;2022-10-31T00:10:55;0.50;;;0.20;;
74543;SDS011;63016;55.030;38.710;2022-10-31T00:13:21;1.27;;;0.30;;
74543;SDS011;63016;55.030;38.710;2022-10-31T00:15:46;10.13;;;0.90;;
74543;SDS011;63016;55.030;38.710;2022-10-31T00:18:12;0.20;;;0.20;;
74543;SDS011;63016;55.030;38.710;2022-10-31T00:20:37;0.50;;;0.30;;
74543;SDS011;63016;55.030;38.710;2022-10-31T00:23:04;0.68;;;0.30;;
74543;SDS011;63016;55.030;38.710;2022-10-31T00:25:33;1.05;;;0.30;;
74543;SDS011;63016;55.030;38.710;2022-10-31T00:28:01;1.40;;;0.30;;
74543;SDS011;63016;55.030;38.710;2022-10-31T00:30:27;0.65;;;0.25;;
74543;SDS011;63016;55.030;38.710;2022-10-31T00:32:52;0.50;;;0.22;;
74543;SDS011;63016;55.030;38.710;2022-10-31T00:35:17;0.68;;;0.20;;
74543;SDS011;63016;55.030;38.710;2022-10-31T00:37:43;0.88;;;0.20;;
74543;SDS011;63016;55.030;38.710;2022-10-31T00:40:09;0.43;;;0.25;;
74543;SDS011;63016;55.030;38.710;2022-10-31T00:42:35;3.58;;;0.22;;
74543;SDS011;63016;55.030;38.710;2022-10-31T00:45:00;1.17;;;0.20;;
74543;SDS011;63016;55.030;38.710;2022-10-31T00:47:26;0.68;;;0.30;;
74543;SDS011;63016;55.030;38.710;2022-10-31T00:49:51;0.30;;;0.20;;
74543;SDS011;63016;55.030;38.710;2022-10-31T00:52:17;3.70;;;0.50;;
74543;SDS011;63016;55.030;38.710;2022-10-31T00:54:42;0.38;;;0.30;;
74543;SDS011;63016;55.030;38.710;2022-10-31T00:57:08;0.98;;;0.20;;
74543;SDS011;63016;55.030;38.710;2022-10-31T00:59:33;1.30;;;0.30;;
74543;SDS011;63016;55.030;38.710;2022-10-31T01:01:58;0.52;;;0.20;;
74543;SDS011;63016;55.030;38.710;2022-10-31T01:04:24;1.48;;;0.20;;
74543;SDS011;63016;55.030;38.710;2022-10-31T01:06:49;2.58;;;0.20;;
74543;SDS011;63016;55.030;38.710;2022-10-31T01:09:15;0.60;;;0.20;;
74543;SDS011;63016;55.030;38.710;2022-10-31T01:11:40;0.50;;;0.20;;
74543;SDS011;63016;55.030;38.710;2022-10-31T01:14:06;0.43;;;0.20;;
74543;SDS011;63016;55.030;38.710;2022-10-31T01:16:31;1.75;;;0.20;;
74543;SDS011;63016;55.030;38.710;2022-10-31T01:18:57;0.25;;;0.17;;
74543;SDS011;63016;55.030;38.710;2022-10-31T01:21:23;4.88;;;0.35;;
74543;SDS011;63016;55.030;38.710;2022-10-31T01:23:50;2.05;;;0.20;;
74543;SDS011;63016;55.030;38.710;2022-10-31T01:26:19;0.50;;;0.20;;
74543;SDS011;63016;55.030;38.710;2022-10-31T01:28:50;0.55;;;0.25;;
74543;SDS011;63016;55.030;38.710;2022-10-31T01:31:25;0.90;;;0.30;;
74543;SDS011;63016;55.030;38.710;2022-10-31T01:33:53;2.30;;;0.20;;
74543;SDS011;63016;55.030;38.710;2022-10-31T01:38:47;1.92;;;0.20;;
74543;SDS011;63016;55.030;38.710;2022-10-31T01:41:14;1.13;;;0.28;;
74543;SDS011;63016;55.030;38.710;2022-10-31T01:44:03;0.70;;;0.20;;
74543;SDS011;63016;55.030;38.710;2022-10-31T01:46:54;0.45;;;0.20;;
74543;SDS011;63016;55.030;38.710;2022-10-31T01:54:35;1.40;;;0.20;;
74543;SDS011;63016;55.030;38.710;2022-10-31T01:57:05;0.70;;;0.13;;
74543;SDS011;63016;55.030;38.710;2022-10-31T01:59:34;1.23;;;0.20;;
74543;SDS011;63016;55.030;38.710;2022-10-31T02:02:04;0.55;;;0.30;;
74543;SDS011;63016;55.030;38.710;2022-10-31T02:04:31;0.70;;;0.20;;
74543;SDS011;63016;55.030;38.710;2022-10-31T02:07:07;0.40;;;0.20;;
74543;SDS011;63016;55.030;38.710;2022-10-31T02:09:38;0.55;;;0.17;;
74543;SDS011;63016;55.030;38.710;2022-10-31T02:12:05;1.55;;;0.20;;
74543;SDS011;63016;55.030;38.710;2022-10-31T02:14:33;0.30;;;0.20;;
74543;SDS011;63016;55.030;38.710;2022-10-31T02:17:01;0.32;;;0.20;;
74543;SDS011;63016;55.030;38.710;2022-10-31T02:28:09;0.75;;;0.25;;
74543;SDS011;63016;55.030;38.710;2022-10-31T02:34:18;0.25;;;0.10;;
74543;SDS011;63016;55.030;38.710;2022-10-31T02:36:58;1.75;;;0.20;;
74543;SDS011;63016;55.030;38.710;2022-10-31T02:39:30;2.88;;;0.50;;
74543;SDS011;63016;55.030;38.710;2022-10-31T02:47:39;2.17;;;0.30;;
74543;SDS011;63016;55.030;38.710;2022-10-31T02:52:42;3.13;;;0.30;;
74543;SDS011;63016;55.030;38.710;2022-10-31T02:55:39;0.70;;;0.25;;
74543;SDS011;63016;55.030;38.710;2022-10-31T02:57:57;0.85;;;0.20;;
74543;SDS011;63016;55.030;38.710;2022-10-31T03:00:24;1.98;;;0.20;;
74543;SDS011;63016;55.030;38.710;2022-10-31T03:11:03;2.20;;;0.80;;
74543;SDS011;63016;55.030;38.710;2022-10-31T03:19:17;1.90;;;0.20;;
74543;SDS011;63016;55.030;38.710;2022-10-31T03:21:52;0.65;;;0.30;;
74543;SDS011;63016;55.030;38.710;2022-10-31T03:24:23;1.02;;;0.20;;
74543;SDS011;63016;55.030;38.710;2022-10-31T03:26:53;1.38;;;0.20;;
74543;SDS011;63016;55.030;38.710;2022-10-31T03:29:23;0.38;;;0.20;;
74543;SDS011;63016;55.030;38.710;2022-10-31T03:32:54;0.30;;;0.10;;
74543;SDS011;63016;55.030;38.710;2022-10-31T03:34:55;0.80;;;0.30;;
74543;SDS011;63016;55.030;38.710;2022-10-31T03:37:25;0.38;;;0.10;;
74543;SDS011;63016;55.030;38.710;2022-10-31T03:39:54;0.40;;;0.22;;
74543;SDS011;63016;55.030;38.710;2022-10-31T03:42:23;0.95;;;0.20;;
74543;SDS011;63016;55.030;38.710;2022-10-31T03:44:53;0.35;;;0.25;;
74543;SDS011;63016;55.030;38.710;2022-10-31T03:47:24;0.30;;;0.10;;
74543;SDS011;63016;55.030;38.710;2022-10-31T03:49:50;0.55;;;0.22;;
74543;SDS011;63016;55.030;38.710;2022-10-31T03:52:27;0.52;;;0.20;;
74543;SDS011;63016;55.030;38.710;2022-10-31T03:58:05;0.63;;;0.28;;
74543;SDS011;63016;55.030;38.710;2022-10-31T04:00:34;2.53;;;0.55;;
74543;SDS011;63016;55.030;38.710;2022-10-31T04:03:24;0.50;;;0.30;;
74543;SDS011;63016;55.030;38.710;2022-10-31T04:05:53;3.05;;;0.35;;
74543;SDS011;63016;55.030;38.710;2022-10-31T04:08:23;1.95;;;0.30;;
74543;SDS011;63016;55.030;38.710;2022-10-31T04:10:53;2.20;;;0.30;;
74543;SDS011;63016;55.030;38.710;2022-10-31T04:13:22;0.63;;;0.28;;
74543;SDS011;63016;55.030;38.710;2022-10-31T04:15:52;5.65;;;0.40;;
74543;SDS011;63016;55.030;38.710;2022-10-31T04:18:20;0.50;;;0.20;;
74543;SDS011;63016;55.030;38.710;2022-10-31T04:20:58;0.70;;;0.30;;
74543;SDS011;63016;55.030;38.710;2022-10-31T04:23:34;0.47;;;0.30;;
74543;SDS011;63016;55.030;38.710;2022-10-31T04:26:00;1.33;;;0.30;;
74543;SDS011;63016;55.030;38.710;2022-10-31T04:28:26;1.42;;;0.30;;
74543;SDS011;63016;55.030;38.710;2022-10-31T04:30:52;1.08;;;0.35;;
74543;SDS011;63016;55.030;38.710;2022-10-31T04:33:17;0.85;;;0.35;;
74543;SDS011;63016;55.030;38.710;2022-10-31T04:35:43;0.50;;;0.20;;
74543;SDS011;63016;55.030;38.710;2022-10-31T04:38:09;2.47;;;0.50;;
74543;SDS011;63016;55.030;38.710;2022-10-31T04:40:35;0.55;;;0.40;;
74543;SDS011;63016;55.030;38.710;2022-10-31T04:43:00;1.35;;;0.30;;
74543;SDS011;63016;55.030;38.710;2022-10-31T04:45:26;2.92;;;0.50;;
74543;SDS011;63016;55.030;38.710;2022-10-31T04:47:51;1.88;;;0.20;;
74543;SDS011;63016;55.030;38.710;2022-10-31T04:50:17;0.68;;;0.30;;
74543;SDS011;63016;55.030;38.710;2022-10-31T04:52:43;1.60;;;0.30;;
74543;SDS011;63016;55.030;38.710;2022-10-31T04:55:10;1.10;;;0.40;;
74543;SDS011;63016;55.030;38.710;2022-10-31T04:57:40;1.08;;;0.20;;
74543;SDS011;63016;55.030;38.710;2022-10-31T05:00:07;0.85;;;0.30;;
74543;SDS011;63016;55.030;38.710;2022-10-31T05:02:33;0.25;;;0.20;;
74543;SDS011;63016;55.030;38.710;2022-10-31T05:04:58;1.55;;;0.30;;
74543;SDS011;63016;55.030;38.710;2022-10-31T05:07:24;2.08;;;0.32;;
74543;SDS011;63016;55.030;38.710;2022-10-31T05:09:49;2.42;;;0.30;;
74543;SDS011;63016;55.030;38.710;2022-10-31T05:12:15;1.17;;;0.20;;
74543;SDS011;63016;55.030;38.710;2022-10-31T05:14:40;1.00;;;0.30;;
74543;SDS011;63016;55.030;38.710;2022-10-31T05:17:06;1.38;;;0.30;;
74543;SDS011;63016;55.030;38.710;2022-10-31T05:19:31;1.17;;;0.30;;
74543;SDS011;63016;55.030;38.710;2022-10-31T05:21:57;0.60;;;0.30;;
74543;SDS011;63016;55.030;38.710;2022-10-31T05:24:22;1.23;;;0.40;;
74543;SDS011;63016;55.030;38.710;2022-10-31T05:26:48;0.50;;;0.30;;
74543;SDS011;63016;55.030;38.710;2022-10-31T05:29:14;1.42;;;0.35;;
74543;SDS011;63016;55.030;38.710;2022-10-31T05:31:39;1.05;;;0.30;;
74543;SDS011;63016;55.030;38.710;2022-10-31T05:34:05;0.60;;;0.40;;
74543;SDS011;63016;55.030;38.710;2022-10-31T05:36:30;0.32;;;0.30;;
74543;SDS011;63016;55.030;38.710;2022-10-31T05:38:56;0.70;;;0.40;;
74543;SDS011;63016;55.030;38.710;2022-10-31T05:41:21;1.77;;;0.35;;
74543;SDS011;63016;55.030;38.710;2022-10-31T05:43:47;1.08;;;0.40;;
74543;SDS011;63016;55.030;38.710;2022-10-31T05:46:12;0.60;;;0.40;;
74543;SDS011;63016;55.030;38.710;2022-10-31T05:48:38;0.88;;;0.40;;
74543;SDS011;63016;55.030;38.710;2022-10-31T05:51:03;0.43;;;0.38;;
74543;SDS011;63016;55.030;38.710;2022-10-31T05:53:29;0.90;;;0.50;;
74543;SDS011;63016;55.030;38.710;2022-10-31T05:55:54;2.35;;;0.40;;
74543;SDS011;63016;55.030;38.710;2022-10-31T05:58:20;1.45;;;0.60;;
74543;SDS011;63016;55.030;38.710;2022-10-31T06:00:45;1.42;;;0.50;;
74543;SDS011;63016;55.030;38.710;2022-10-31T06:03:11;2.22;;;0.40;;
74543;SDS011;63016;55.030;38.710;2022-10-31T06:05:36;0.90;;;0.30;;
74543;SDS011;63016;55.030;38.710;2022-10-31T06:08:02;0.65;;;0.40;;
74543;SDS011;63016;55.030;38.710;2022-10-31T06:10:27;0.88;;;0.32;;
74543;SDS011;63016;55.030;38.710;2022-10-31T06:12:53;1.92;;;0.55;;
74543;SDS011;63016;55.030;38.710;2022-10-31T06:15:18;1.38;;;0.40;;
74543;SDS011;63016;55.030;38.710;2022-10-31T06:17:44;2.63;;;0.68;;
74543;SDS011;63016;55.030;38.710;2022-10-31T06:20:10;4.90;;;0.57;;
74543;SDS011;63016;55.030;38.710;2022-10-31T06:22:36;10.25;;;0.80;;
74543;SDS011;63016;55.030;38.710;2022-10-31T06:25:01;6.28;;;0.50;;
74543;SDS011;63016;55.030;38.710;2022-10-31T06:27:27;0.90;;;0.43;;
74543;SDS011;63016;55.030;38.710;2022-10-31T06:29:53;0.73;;;0.32;;
74543;SDS011;63016;55.030;38.710;2022-10-31T06:32:18;1.23;;;0.45;;
74543;SDS011;63016;55.030;38.710;2022-10-31T06:34:44;0.85;;;0.50;;
74543;SDS011;63016;55.030;38.710;2022-10-31T06:37:13;0.80;;;0.40;;
74543;SDS011;63016;55.030;38.710;2022-10-31T06:39:39;0.98;;;0.40;;
74543;SDS011;63016;55.030;38.710;2022-10-31T06:42:05;1.05;;;0.50;;
74543;SDS011;63016;55.030;38.710;2022-10-31T06:44:30;1.95;;;0.50;;
74543;SDS011;63016;55.030;38.710;2022-10-31T06:46:56;1.83;;;0.50;;
74543;SDS011;63016;55.030;38.710;2022-10-31T06:49:21;1.67;;;0.47;;
74543;SDS011;63016;55.030;38.710;2022-10-31T06:51:47;1.33;;;0.40;;
74543;SDS011;63016;55.030;38.710;2022-10-31T06:54:13;3.55;;;0.40;;
74543;SDS011;63016;55.030;38.710;2022-10-31T06:56:40;2.45;;;0.68;;
74543;SDS011;63016;55.030;38.710;2022-10-31T06:59:05;1.27;;;0.57;;
74543;SDS011;63016;55.030;38.710;2022-10-31T07:01:31;0.63;;;0.40;;
74543;SDS011;63016;55.030;38.710;2022-10-31T07:03:56;1.58;;;0.63;;
74543;SDS011;63016;55.030;38.710;2022-10-31T07:06:22;2.35;;;0.40;;
74543;SDS011;63016;55.030;38.710;2022-10-31T07:08:47;0.82;;;0.40;;
74543;SDS011;63016;55.030;38.710;2022-10-31T07:11:13;0.90;;;0.30;;
74543;SDS011;63016;55.030;38.710;2022-10-31T07:13:39;1.27;;;0.50;;
74543;SDS011;63016;55.030;38.710;2022-10-31T07:16:04;1.98;;;0.63;;
74543;SDS011;63016;55.030;38.710;2022-10-31T07:21:02;1.48;;;0.50;;
74543;SDS011;63016;55.030;38.710;2022-10-31T07:23:28;1.23;;;0.52;;
74543;SDS011;63016;55.030;38.710;2022-10-31T07:25:57;0.95;;;0.50;;
74543;SDS011;63016;55.030;38.710;2022-10-31T07:28:23;1.45;;;0.52;;
74543;SDS011;63016;55.030;38.710;2022-10-31T07:30:51;2.63;;;0.60;;
74543;SDS011;63016;55.030;38.710;2022-10-31T07:33:20;3.67;;;0.60;;
74543;SDS011;63016;55.030;38.710;2022-10-31T07:35:46;4.53;;;0.60;;
74543;SDS011;63016;55.030;38.710;2022-10-31T07:38:12;1.95;;;0.60;;
74543;SDS011;63016;55.030;38.710;2022-10-31T07:40:39;1.88;;;0.52;;
74543;SDS011;63016;55.030;38.710;2022-10-31T07:43:06;1.88;;;0.70;;
74543;SDS011;63016;55.030;38.710;2022-10-31T07:45:32;1.65;;;0.68;;
74543;SDS011;63016;55.030;38.710;2022-10-31T07:47:57;4.65;;;0.90;;
74543;SDS011;63016;55.030;38.710;2022-10-31T07:50:27;2.58;;;0.80;;
74543;SDS011;63016;55.030;38.710;2022-10-31T07:52:58;2.13;;;0.90;;
74543;SDS011;63016;55.030;38.710;2022-10-31T07:55:24;2.53;;;0.93;;
74543;SDS011;63016;55.030;38.710;2022-10-31T07:58:00;2.75;;;0.70;;
74543;SDS011;63016;55.030;38.710;2022-10-31T08:00:27;1.85;;;0.80;;
74543;SDS011;63016;55.030;38.710;2022-10-31T08:03:00;2.15;;;0.60;;
74543;SDS011;63016;55.030;38.710;2022-10-31T08:05:27;0.90;;;0.60;;
74543;SDS011;63016;55.030;38.710;2022-10-31T08:07:53;2.15;;;0.70;;
74543;SDS011;63016;55.030;38.710;2022-10-31T08:10:19;0.52;;;0.50;;
74543;SDS011;63016;55.030;38.710;2022-10-31T08:12:45;1.25;;;0.50;;
74543;SDS011;63016;55.030;38.710;2022-10-31T08:15:11;1.40;;;0.70;;
74543;SDS011;63016;55.030;38.710;2022-10-31T08:17:37;1.67;;;1.00;;
74543;SDS011;63016;55.030;38.710;2022-10-31T08:20:03;1.85;;;0.70;;
74543;SDS011;63016;55.030;38.710;2022-10-31T08:22:30;1.55;;;0.80;;
74543;SDS011;63016;55.030;38.710;2022-10-31T08:24:56;1.95;;;0.70;;
74543;SDS011;63016;55.030;38.710;2022-10-31T08:27:21;0.90;;;0.63;;
74543;SDS011;63016;55.030;38.710;2022-10-31T08:29:47;1.08;;;0.75;;
74543;SDS011;63016;55.030;38.710;2022-10-31T08:32:13;4.82;;;0.80;;
74543;SDS011;63016;55.030;38.710;2022-10-31T08:34:38;1.40;;;0.80;;
74543;SDS011;63016;55.030;38.710;2022-10-31T08:37:04;1.95;;;0.75;;
74543;SDS011;63016;55.030;38.710;2022-10-31T08:39:29;1.77;;;0.70;;
74543;SDS011;63016;55.030;38.710;2022-10-31T08:41:55;2.50;;;0.80;;
74543;SDS011;63016;55.030;38.710;2022-10-31T08:44:20;1.85;;;1.00;;
74543;SDS011;63016;55.030;38.710;2022-10-31T08:46:46;1.33;;;0.90;;
74543;SDS011;63016;55.030;38.710;2022-10-31T08:49:11;1.05;;;0.70;;
74543;SDS011;63016;55.030;38.710;2022-10-31T08:51:37;1.42;;;0.90;;
74543;SDS011;63016;55.030;38.710;2022-10-31T08:54:02;1.00;;;0.80;;
74543;SDS011;63016;55.030;38.710;2022-10-31T08:56:28;4.28;;;0.85;;
74543;SDS011;63016;55.030;38.710;2022-10-31T08:58:54;1.10;;;1.00;;
74543;SDS011;63016;55.030;38.710;2022-10-31T09:01:19;1.55;;;0.70;;
74543;SDS011;63016;55.030;38.710;2022-10-31T09:03:45;0.88;;;0.80;;
74543;SDS011;63016;55.030;38.710;2022-10-31T09:06:10;1.95;;;0.77;;
74543;SDS011;63016;55.030;38.710;2022-10-31T09:08:36;1.50;;;0.70;;
74543;SDS011;63016;55.030;38.710;2022-10-31T09:11:02;2.17;;;1.58;;
74543;SDS011;63016;55.030;38.710;2022-10-31T09:13:29;1.85;;;0.65;;
74543;SDS011;63016;55.030;38.710;2022-10-31T09:15:56;2.13;;;0.70;;
74543;SDS011;63016;55.030;38.710;2022-10-31T09:18:24;0.90;;;0.63;;
74543;SDS011;63016;55.030;38.710;2022-10-31T09:20:52;1.33;;;0.70;;
74543;SDS011;63016;55.030;38.710;2022-10-31T09:23:19;0.90;;;0.70;;
74543;SDS011;63016;55.030;38.710;2022-10-31T09:25:47;1.10;;;0.60;;
74543;SDS011;63016;55.030;38.710;2022-10-31T09:28:15;1.77;;;0.68;;
74543;SDS011;63016;55.030;38.710;2022-10-31T09:30:41;1.27;;;0.70;;
74543;SDS011;63016;55.030;38.710;2022-10-31T09:33:10;1.60;;;0.70;;
74543;SDS011;63016;55.030;38.710;2022-10-31T09:35:37;0.95;;;0.70;;
74543;SDS011;63016;55.030;38.710;2022-10-31T09:38:13;1.95;;;0.65;;
74543;SDS011;63016;55.030;38.710;2022-10-31T09:40:42;4.13;;;0.70;;
74543;SDS011;63016;55.030;38.710;2022-10-31T09:43:22;0.77;;;0.70;;
74543;SDS011;63016;55.030;38.710;2022-10-31T09:51:19;1.55;;;0.70;;
74543;SDS011;63016;55.030;38.710;2022-10-31T09:53:57;2.47;;;0.77;;
74543;SDS011;63016;55.030;38.710;2022-10-31T09:56:24;1.98;;;0.70;;
74543;SDS011;63016;55.030;38.710;2022-10-31T09:58:56;1.05;;;0.70;;
74543;SDS011;63016;55.030;38.710;2022-10-31T10:03:51;0.93;;;0.70;;
74543;SDS011;63016;55.030;38.710;2022-10-31T10:06:23;0.93;;;0.60;;
74543;SDS011;63016;55.030;38.710;2022-10-31T10:08:52;2.20;;;0.90;;
74543;SDS011;63016;55.030;38.710;2022-10-31T10:27:47;2.08;;;0.80;;
74543;SDS011;63016;55.030;38.710;2022-10-31T10:30:18;1.10;;;0.90;;
74543;SDS011;63016;55.030;38.710;2022-10-31T10:32:53;2.47;;;1.00;;
74543;SDS011;63016;55.030;38.710;2022-10-31T10:40:48;1.35;;;0.80;;
74543;SDS011;63016;55.030;38.710;2022-10-31T10:43:22;1.90;;;1.00;;
74543;SDS011;63016;55.030;38.710;2022-10-31T10:48:59;1.52;;;0.80;;
74543;SDS011;63016;55.030;38.710;2022-10-31T10:51:44;1.42;;;0.68;;
74543;SDS011;63016;55.030;38.710;2022-10-31T10:54:20;1.20;;;0.73;;
74543;SDS011;63016;55.030;38.710;2022-10-31T10:59:54;0.88;;;0.50;;
74543;SDS011;63016;55.030;38.710;2022-10-31T11:02:21;2.05;;;0.50;;
74543;SDS011;63016;55.030;38.710;2022-10-31T11:04:54;0.47;;;0.30;;
74543;SDS011;63016;55.030;38.710;2022-10-31T11:09:47;1.52;;;0.50;;
74543;SDS011;63016;55.030;38.710;2022-10-31T11:14:51;1.77;;;0.60;;
74543;SDS011;63016;55.030;38.710;2022-10-31T11:17:28;0.85;;;0.47;;
74543;SDS011;63016;55.030;38.710;2022-10-31T11:20:22;1.27;;;0.70;;
74543;SDS011;63016;55.030;38.710;2022-10-31T11:22:44;0.90;;;0.50;;
74543;SDS011;63016;55.030;38.710;2022-10-31T11:27:58;1.15;;;0.50;;
74543;SDS011;63016;55.030;38.710;2022-10-31T11:30:25;1.00;;;0.60;;
74543;SDS011;63016;55.030;38.710;2022-10-31T11:32:50;1.50;;;0.70;;
74543;SDS011;63016;55.030;38.710;2022-10-31T11:35:17;1.65;;;0.70;;
74543;SDS011;63016;55.030;38.710;2022-10-31T11:37:45;1.17;;;0.70;;
74543;SDS011;63016;55.030;38.710;2022-10-31T11:40:20;2.08;;;0.70;;
74543;SDS011;63016;55.030;38.710;2022-10-31T11:42:48;1.33;;;0.60;;
74543;SDS011;63016;55.030;38.710;2022-10-31T11:45:27;2.35;;;0.70;;
74543;SDS011;63016;55.030;38.710;2022-10-31T11:47:56;1.38;;;0.70;;
74543;SDS011;63016;55.030;38.710;2022-10-31T11:50:26;2.38;;;0.95;;
74543;SDS011;63016;55.030;38.710;2022-10-31T11:52:57;2.15;;;1.00;;
74543;SDS011;63016;55.030;38.710;2022-10-31T11:55:33;2.35;;;0.80;;
74543;SDS011;63016;55.030;38.710;2022-10-31T11:58:01;1.00;;;0.82;;
74543;SDS011;63016;55.030;38.710;2022-10-31T12:00:31;1.40;;;0.90;;
74543;SDS011;63016;55.030;38.710;2022-10-31T12:06:05;1.65;;;0.80;;
74543;SDS011;63016;55.030;38.710;2022-10-31T12:08:37;2.78;;;0.95;;
74543;SDS011;63016;55.030;38.710;2022-10-31T12:36:12;1.70;;;0.80;;
74543;SDS011;63016;55.030;38.710;2022-10-31T12:44:05;1.88;;;0.85;;
74543;SDS011;63016;55.030;38.710;2022-10-31T12:46:42;1.63;;;0.70;;
74543;SDS011;63016;55.030;38.710;2022-10-31T12:49:36;1.08;;;0.70;;
74543;SDS011;63016;55.030;38.710;2022-10-31T12:57:39;1.13;;;0.70;;
74543;SDS011;63016;55.030;38.710;2022-10-31T13:00:18;1.00;;;0.57;;
74543;SDS011;63016;55.030;38.710;2022-10-31T13:05:46;1.10;;;0.60;;
74543;SDS011;63016;55.030;38.710;2022-10-31T13:08:33;1.42;;;0.50;;
74543;SDS011;63016;55.030;38.710;2022-10-31T13:11:15;0.73;;;0.55;;
74543;SDS011;63016;55.030;38.710;2022-10-31T13:13:59;0.75;;;0.55;;
74543;SDS011;63016;55.030;38.710;2022-10-31T13:16:35;1.00;;;0.60;;
74543;SDS011;63016;55.030;38.710;2022-10-31T13:21:41;0.90;;;0.60;;
74543;SDS011;63016;55.030;38.710;2022-10-31T13:24:22;0.98;;;0.60;;
74543;SDS011;63016;55.030;38.710;2022-10-31T13:26:52;0.85;;;0.60;;
74543;SDS011;63016;55.030;38.710;2022-10-31T13:31:58;2.15;;;0.63;;
74543;SDS011;63016;55.030;38.710;2022-10-31T13:34:51;0.82;;;0.55;;
74543;SDS011;63016;55.030;38.710;2022-10-31T13:37:34;0.63;;;0.47;;
74543;SDS011;63016;55.030;38.710;2022-10-31T13:45:35;0.75;;;0.50;;
74543;SDS011;63016;55.030;38.710;2022-10-31T13:50:41;1.52;;;0.80;;
74543;SDS011;63016;55.030;38.710;2022-10-31T13:55:44;1.00;;;0.70;;
74543;SDS011;63016;55.030;38.710;2022-10-31T13:58:28;2.10;;;0.68;;
74543;SDS011;63016;55.030;38.710;2022-10-31T14:03:36;1.33;;;0.60;;
74543;SDS011;63016;55.030;38.710;2022-10-31T14:06:03;1.63;;;0.70;;
74543;SDS011;63016;55.030;38.710;2022-10-31T14:08:31;1.00;;;0.70;;
74543;SDS011;63016;55.030;38.710;2022-10-31T14:11:00;3.55;;;0.70;;
74543;SDS011;63016;55.030;38.710;2022-10-31T14:13:35;1.55;;;0.73;;
74543;SDS011;63016;55.030;38.710;2022-10-31T14:16:45;1.05;;;0.73;;
74543;SDS011;63016;55.030;38.710;2022-10-31T14:19:00;1.00;;;0.57;;
74543;SDS011;63016;55.030;38.710;2022-10-31T14:21:37;0.93;;;0.60;;
74543;SDS011;63016;55.030;38.710;2022-10-31T14:26:53;2.05;;;0.88;;
74543;SDS011;63016;55.030;38.710;2022-10-31T14:29:30;2.55;;;0.73;;
74543;SDS011;63016;55.030;38.710;2022-10-31T14:32:16;1.63;;;0.65;;
74543;SDS011;63016;55.030;38.710;2022-10-31T14:35:00;1.60;;;0.70;;
74543;SDS011;63016;55.030;38.710;2022-10-31T14:37:39;1.25;;;0.63;;
74543;SDS011;63016;55.030;38.710;2022-10-31T14:45:56;0.73;;;0.73;;
74543;SDS011;63016;55.030;38.710;2022-10-31T14:51:15;1.35;;;0.77;;
74543;SDS011;63016;55.030;38.710;2022-10-31T14:53:53;2.88;;;0.80;;
74543;SDS011;63016;55.030;38.710;2022-10-31T14:56:23;1.10;;;0.80;;
74543;SDS011;63016;55.030;38.710;2022-10-31T14:58:51;2.90;;;1.20;;
74543;SDS011;63016;55.030;38.710;2022-10-31T15:01:30;2.17;;;0.90;;
74543;SDS011;63016;55.030;38.710;2022-10-31T15:06:47;1.77;;;1.05;;
74543;SDS011;63016;55.030;38.710;2022-10-31T15:09:23;3.28;;;1.17;;
74543;SDS011;63016;55.030;38.710;2022-10-31T15:11:54;2.03;;;1.20;;
74543;SDS011;63016;55.030;38.710;2022-10-31T15:14:24;3.28;;;1.10;;
74543;SDS011;63016;55.030;38.710;2022-10-31T15:16:56;2.67;;;1.30;;
74543;SDS011;63016;55.030;38.710;2022-10-31T15:19:24;1.90;;;1.20;;
74543;SDS011;63016;55.030;38.710;2022-10-31T15:21:53;2.25;;;1.15;;
74543;SDS011;63016;55.030;38.710;2022-10-31T15:24:22;2.97;;;1.25;;
74543;SDS011;63016;55.030;38.710;2022-10-31T15:26:53;2.50;;;1.00;;
74543;SDS011;63016;55.030;38.710;2022-10-31T15:29:22;2.80;;;1.20;;
74543;SDS011;63016;55.030;38.710;2022-10-31T15:31:53;4.55;;;1.00;;
74543;SDS011;63016;55.030;38.710;2022-10-31T15:36:55;2.78;;;1.20;;
74543;SDS011;63016;55.030;38.710;2022-10-31T15:39:21;2.53;;;1.30;;
74543;SDS011;63016;55.030;38.710;2022-10-31T15:41:51;1.52;;;1.00;;
74543;SDS011;63016;55.030;38.710;2022-10-31T15:46:54;2.92;;;1.40;;
74543;SDS011;63016;55.030;38.710;2022-10-31T15:52:05;2.83;;;1.30;;
74543;SDS011;63016;55.030;38.710;2022-10-31T15:54:53;2.15;;;1.05;;
74543;SDS011;63016;55.030;38.710;2022-10-31T15:57:23;2.60;;;1.33;;
74543;SDS011;63016;55.030;38.710;2022-10-31T15:59:51;2.25;;;1.27;;
74543;SDS011;63016;55.030;38.710;2022-10-31T16:02:19;3.15;;;1.60;;
74543;SDS011;63016;55.030;38.710;2022-10-31T16:04:50;3.15;;;1.15;;
74543;SDS011;63016;55.030;38.710;2022-10-31T16:07:21;1.73;;;0.90;;
74543;SDS011;63016;55.030;38.710;2022-10-31T16:10:21;2.30;;;1.20;;
74543;SDS011;63016;55.030;38.710;2022-10-31T16:12:50;3.10;;;0.90;;
74543;SDS011;63016;55.030;38.710;2022-10-31T16:15:18;1.50;;;0.90;;
74543;SDS011;63016;55.030;38.710;2022-10-31T16:17:45;2.40;;;1.00;;
74543;SDS011;63016;55.030;38.710;2022-10-31T16:20:23;1.20;;;0.80;;
74543;SDS011;63016;55.030;38.710;2022-10-31T16:22:52;1.38;;;0.80;;
74543;SDS011;63016;55.030;38.710;2022-10-31T16:25:29;1.98;;;1.00;;
74543;SDS011;63016;55.030;38.710;2022-10-31T16:28:02;1.38;;;0.70;;
74543;SDS011;63016;55.030;38.710;2022-10-31T16:30:39;1.70;;;0.70;;
74543;SDS011;63016;55.030;38.710;2022-10-31T16:35:59;1.33;;;0.90;;
74543;SDS011;63016;55.030;38.710;2022-10-31T16:38:28;1.25;;;0.63;;
74543;SDS011;63016;55.030;38.710;2022-10-31T16:40:53;1.20;;;0.70;;
74543;SDS011;63016;55.030;38.710;2022-10-31T16:43:19;1.38;;;0.57;;
74543;SDS011;63016;55.030;38.710;2022-10-31T16:45:48;1.95;;;0.90;;
74543;SDS011;63016;55.030;38.710;2022-10-31T16:48:21;2.70;;;0.70;;
74543;SDS011;63016;55.030;38.710;2022-10-31T16:50:48;0.98;;;0.75;;
74543;SDS011;63016;55.030;38.710;2022-10-31T16:53:17;2.45;;;1.02;;
74543;SDS011;63016;55.030;38.710;2022-10-31T16:55:48;1.95;;;0.80;;
74543;SDS011;63016;55.030;38.710;2022-10-31T17:00:57;1.40;;;0.90;;
74543;SDS011;63016;55.030;38.710;2022-10-31T17:03:23;1.42;;;0.85;;
74543;SDS011;63016;55.030;38.710;2022-10-31T17:05:49;1.20;;;0.80;;
74543;SDS011;63016;55.030;38.710;2022-10-31T17:08:15;2.60;;;0.90;;
74543;SDS011;63016;55.030;38.710;2022-10-31T17:10:41;1.95;;;1.00;;
74543;SDS011;63016;55.030;38.710;2022-10-31T17:13:13;1.73;;;0.82;;
74543;SDS011;63016;55.030;38.710;2022-10-31T17:15:47;1.90;;;1.05;;
74543;SDS011;63016;55.030;38.710;2022-10-31T17:18:18;2.42;;;0.90;;
74543;SDS011;63016;55.030;38.710;2022-10-31T17:20:44;1.73;;;1.10;;
74543;SDS011;63016;55.030;38.710;2022-10-31T17:23:11;4.18;;;1.00;;
74543;SDS011;63016;55.030;38.710;2022-10-31T17:25:39;1.77;;;0.80;;
74543;SDS011;63016;55.030;38.710;2022-10-31T17:28:05;5.35;;;1.20;;
74543;SDS011;63016;55.030;38.710;2022-10-31T17:30:31;2.50;;;1.02;;
74543;SDS011;63016;55.030;38.710;2022-10-31T17:32:58;4.05;;;1.08;;
74543;SDS011;63016;55.030;38.710;2022-10-31T17:35:24;1.80;;;1.17;;
74543;SDS011;63016;55.030;38.710;2022-10-31T17:37:50;2.85;;;1.15;;
74543;SDS011;63016;55.030;38.710;2022-10-31T17:40:19;2.30;;;1.00;;
74543;SDS011;63016;55.030;38.710;2022-10-31T17:42:52;4.05;;;1.00;;
74543;SDS011;63016;55.030;38.710;2022-10-31T17:45:19;1.80;;;1.00;;